Time;durP1;ratioP1;P1;durP2;ratioP2;P2;SDS_P1;SDS_P2;PMS_P1;PMS_P2;Temp;Humidity;BMP_temperature;BMP_pressure;BME280_temperature;BME280_humidity;BME280_pressure;Samples;Min_cycle;Max_cycle;Signal;HPM_P1;HPM_P2
2022/08/09 00:02:07;;;;;;;1.30;1.20;;;13.30;99.90;;;;;;5083697;28;20507;-78
2022/08/09 00:04:36;;;;;;;1.27;1.03;;;13.20;99.90;;;;;;5082417;28;20508;-78
2022/08/09 00:07:04;;;;;;;1.23;1.00;;;13.30;99.90;;;;;;5081787;28;20457;-78
2022/08/09 00:09:31;;;;;;;0.80;0.80;;;13.30;99.90;;;;;;5083362;28;20824;-77
2022/08/09 00:11:59;;;;;;;0.80;0.73;;;13.20;99.90;;;;;;5080851;28;20544;-77
2022/08/09 00:14:26;;;;;;;0.83;0.83;;;13.30;99.90;;;;;;5082353;28;20469;-77
2022/08/09 00:16:53;;;;;;;1.57;1.03;;;13.40;99.90;;;;;;5077859;28;20470;-78
2022/08/09 00:19:20;;;;;;;2.30;0.90;;;13.40;99.90;;;;;;5079258;28;20530;-77
2022/08/09 00:21:48;;;;;;;0.80;0.80;;;13.30;99.90;;;;;;5070393;28;20461;-77
2022/08/09 00:24:15;;;;;;;0.90;0.77;;;13.20;99.90;;;;;;5079708;28;20483;-79
2022/08/09 00:26:42;;;;;;;1.87;1.00;;;13.20;99.90;;;;;;5082670;28;20467;-78
2022/08/09 00:29:09;;;;;;;1.20;1.10;;;13.20;99.90;;;;;;5081950;28;20596;-80
2022/08/09 00:31:36;;;;;;;1.83;1.10;;;13.10;99.90;;;;;;5080656;28;20479;-77
2022/08/09 00:34:03;;;;;;;0.70;0.70;;;13.10;99.90;;;;;;5084406;28;20471;-77
2022/08/09 00:36:31;;;;;;;0.83;0.83;;;13.10;99.90;;;;;;5078621;28;20464;-77
2022/08/09 00:39:00;;;;;;;1.73;1.60;;;13.30;99.90;;;;;;5079276;28;20466;-77
2022/08/09 00:41:27;;;;;;;1.80;1.27;;;13.30;99.90;;;;;;5074161;28;21035;-78
2022/08/09 00:43:54;;;;;;;1.37;1.27;;;13.20;99.90;;;;;;5079188;28;20481;-79
2022/08/09 00:46:21;;;;;;;1.13;1.03;;;13.10;99.90;;;;;;5070652;28;20475;-78
2022/08/09 00:48:48;;;;;;;1.13;1.00;;;13.10;99.90;;;;;;5077709;28;21082;-78
2022/08/09 00:51:17;;;;;;;0.90;0.90;;;13.10;99.90;;;;;;5082456;28;20466;-77
2022/08/09 00:53:45;;;;;;;0.70;0.70;;;13.10;99.90;;;;;;5074969;28;20534;-80
2022/08/09 00:56:14;;;;;;;2.30;0.67;;;13.10;99.90;;;;;;5072208;28;20532;-77
2022/08/09 00:58:42;;;;;;;1.40;1.00;;;13.00;99.90;;;;;;5078282;28;20470;-79
2022/08/09 01:01:12;;;;;;;1.67;1.13;;;12.90;99.90;;;;;;5083640;28;20473;-77
2022/08/09 01:03:48;;;;;;;0.70;0.70;;;13.00;99.90;;;;;;5079165;28;20551;-81
2022/08/09 01:06:26;;;;;;;1.23;1.10;;;13.00;99.90;;;;;;5076159;28;21067;-77
2022/08/09 01:09:03;;;;;;;1.97;1.17;;;12.90;99.90;;;;;;5070801;28;21035;-77
2022/08/09 01:11:46;;;;;;;1.90;0.80;;;12.90;99.90;;;;;;5074885;28;20893;-77
2022/08/09 01:14:23;;;;;;;0.93;0.90;;;12.90;99.90;;;;;;5080893;28;20464;-79
2022/08/09 01:16:55;;;;;;;0.80;0.80;;;12.80;99.90;;;;;;5074243;28;20508;-78
2022/08/09 01:19:31;;;;;;;0.70;0.70;;;12.70;99.90;;;;;;5076237;28;20539;-81
2022/08/09 01:22:13;;;;;;;1.47;1.33;;;12.70;99.90;;;;;;5078434;28;20472;-78
2022/08/09 01:24:52;;;;;;;1.63;1.13;;;12.70;99.90;;;;;;5076213;28;20567;-78
2022/08/09 01:27:23;;;;;;;0.97;0.97;;;12.80;99.90;;;;;;5074016;28;20992;-77
2022/08/09 01:29:57;;;;;;;1.43;0.80;;;12.80;99.90;;;;;;5079128;28;21409;-81
2022/08/09 01:32:29;;;;;;;1.30;1.07;;;12.80;99.90;;;;;;5082681;28;20463;-77
2022/08/09 01:34:58;;;;;;;1.60;1.00;;;12.80;99.90;;;;;;5080788;28;20485;-77
2022/08/09 01:37:26;;;;;;;1.50;0.80;;;12.80;99.90;;;;;;5084115;28;20466;-78
2022/08/09 01:39:54;;;;;;;1.07;1.07;;;12.70;99.90;;;;;;5081390;28;20537;-78
2022/08/09 01:42:24;;;;;;;1.00;0.90;;;12.70;99.90;;;;;;5042171;28;1156568;-78
2022/08/09 01:44:53;;;;;;;0.87;0.87;;;12.70;99.90;;;;;;5085475;28;20229;-78
2022/08/09 01:47:22;;;;;;;1.13;1.03;;;12.80;99.90;;;;;;5082377;28;20553;-81
2022/08/09 01:49:50;;;;;;;1.10;0.80;;;12.70;99.90;;;;;;5082325;28;20451;-77
2022/08/09 01:52:19;;;;;;;1.23;1.20;;;12.70;99.90;;;;;;5082298;28;20490;-77
2022/08/09 01:54:48;;;;;;;1.40;1.30;;;12.60;99.90;;;;;;5083110;28;20849;-79
2022/08/09 01:57:19;;;;;;;1.40;1.30;;;12.60;99.90;;;;;;5082387;28;20465;-79
2022/08/09 01:59:51;;;;;;;2.00;0.80;;;12.50;99.90;;;;;;5077629;28;20459;-80
2022/08/09 02:02:20;;;;;;;1.30;1.20;;;12.50;99.90;;;;;;5080416;28;20465;-77
2022/08/09 02:04:48;;;;;;;0.93;0.90;;;12.50;99.90;;;;;;5082340;28;20577;-77
2022/08/09 02:07:18;;;;;;;1.27;1.17;;;12.50;99.90;;;;;;5075579;28;20823;-76
2022/08/09 02:09:53;;;;;;;1.43;1.30;;;12.40;99.90;;;;;;5080813;28;20470;-77
2022/08/09 02:12:21;;;;;;;1.00;0.90;;;12.40;99.90;;;;;;5089393;28;20487;-77
2022/08/09 02:14:52;;;;;;;1.43;1.33;;;12.40;99.90;;;;;;5079092;28;20465;-77
2022/08/09 02:17:24;;;;;;;1.77;1.67;;;12.40;99.90;;;;;;5076583;28;20524;-78
2022/08/09 02:19:51;;;;;;;1.73;1.03;;;12.50;99.90;;;;;;5073194;28;20464;-77
2022/08/09 02:22:30;;;;;;;1.47;1.37;;;12.40;99.90;;;;;;5083136;28;20449;-78
2022/08/09 02:25:00;;;;;;;1.37;1.03;;;12.50;99.90;;;;;;5084191;28;20492;-77
2022/08/09 02:27:31;;;;;;;1.30;1.20;;;12.20;99.90;;;;;;5079618;28;20469;-78
2022/08/09 02:30:02;;;;;;;1.17;1.07;;;12.20;99.90;;;;;;5085388;28;20455;-77
2022/08/09 02:32:32;;;;;;;1.10;1.00;;;12.20;99.90;;;;;;5074987;28;20466;-77
2022/08/09 02:35:05;;;;;;;2.77;1.20;;;12.10;99.90;;;;;;5081642;28;20839;-78
2022/08/09 02:37:37;;;;;;;0.90;0.90;;;12.00;99.90;;;;;;5079352;28;20818;-78
2022/08/09 02:40:08;;;;;;;1.63;1.53;;;12.00;99.90;;;;;;5080723;28;20457;-77
2022/08/09 02:42:38;;;;;;;1.67;1.00;;;12.00;99.90;;;;;;5083987;28;20482;-78
2022/08/09 02:45:11;;;;;;;0.90;0.90;;;12.00;99.90;;;;;;5082245;28;20556;-78
2022/08/09 02:47:41;;;;;;;1.20;1.10;;;12.00;99.90;;;;;;5081237;28;20462;-79
2022/08/09 02:50:13;;;;;;;1.00;1.00;;;12.00;99.90;;;;;;5081893;28;20462;-78
2022/08/09 02:52:47;;;;;;;1.23;1.13;;;12.10;99.90;;;;;;5081317;28;20461;-79
2022/08/09 02:55:16;;;;;;;1.23;0.97;;;12.00;99.90;;;;;;5075651;28;20475;-77
2022/08/09 02:57:45;;;;;;;1.40;1.30;;;12.00;99.90;;;;;;5079924;28;20463;-77
2022/08/09 03:00:15;;;;;;;1.20;1.20;;;12.00;99.90;;;;;;5082777;28;20840;-77
2022/08/09 03:02:46;;;;;;;0.70;0.70;;;12.20;99.90;;;;;;5079879;28;20459;-77
2022/08/09 03:05:14;;;;;;;1.97;1.00;;;12.20;99.90;;;;;;5080867;28;20491;-79
2022/08/09 03:07:43;;;;;;;1.70;1.20;;;12.20;99.90;;;;;;5081461;28;20468;-77
2022/08/09 03:10:11;;;;;;;0.80;0.77;;;12.00;99.90;;;;;;5075098;28;20873;-79
2022/08/09 03:12:39;;;;;;;1.20;1.10;;;12.10;99.90;;;;;;5082170;28;20519;-79
2022/08/09 03:15:09;;;;;;;1.53;1.13;;;12.00;99.90;;;;;;5075474;28;20458;-79
2022/08/09 03:17:38;;;;;;;2.43;1.00;;;12.10;99.90;;;;;;5072392;28;20468;-78
2022/08/09 03:20:08;;;;;;;2.37;1.30;;;12.10;99.90;;;;;;5079573;28;20482;-80
2022/08/09 03:22:38;;;;;;;1.50;1.40;;;12.10;99.90;;;;;;5081244;28;20470;-78
2022/08/09 03:25:07;;;;;;;0.93;0.93;;;12.10;99.90;;;;;;5074151;28;20514;-79
2022/08/09 03:27:35;;;;;;;1.07;0.97;;;12.00;99.90;;;;;;5076516;28;20530;-78
2022/08/09 03:30:03;;;;;;;2.20;1.30;;;11.90;99.90;;;;;;5084762;28;20522;-77
2022/08/09 03:32:31;;;;;;;0.90;0.77;;;11.90;99.90;;;;;;5080562;28;20469;-78
2022/08/09 03:35:00;;;;;;;1.50;0.97;;;11.90;99.90;;;;;;5082961;28;20458;-77
2022/08/09 03:37:27;;;;;;;1.07;0.97;;;11.90;99.90;;;;;;5077220;28;20470;-77
2022/08/09 03:39:54;;;;;;;0.73;0.70;;;12.00;99.90;;;;;;5080703;28;20946;-81
2022/08/09 03:42:21;;;;;;;1.00;1.00;;;12.00;99.90;;;;;;5078700;28;20480;-78
2022/08/09 03:44:48;;;;;;;0.83;0.83;;;11.90;99.90;;;;;;5080922;28;20459;-78
2022/08/09 03:47:15;;;;;;;1.27;1.17;;;11.90;99.90;;;;;;5080804;28;20497;-77
2022/08/09 03:49:43;;;;;;;0.80;0.77;;;11.80;99.90;;;;;;5079895;28;20465;-80
2022/08/09 03:52:14;;;;;;;1.10;1.00;;;11.80;99.90;;;;;;5081433;28;20450;-77
2022/08/09 03:54:43;;;;;;;1.40;1.30;;;11.80;99.90;;;;;;5081510;28;20466;-80
2022/08/09 03:57:12;;;;;;;1.17;0.83;;;11.80;99.90;;;;;;5081824;28;20543;-81
2022/08/09 03:59:40;;;;;;;2.80;1.00;;;11.70;99.90;;;;;;5081207;28;20491;-78
2022/08/09 04:02:08;;;;;;;1.17;1.07;;;11.80;99.90;;;;;;5078290;28;20561;-77
2022/08/09 04:04:35;;;;;;;1.87;0.70;;;11.80;99.90;;;;;;5090167;28;20859;-78
2022/08/09 04:07:02;;;;;;;1.30;0.93;;;11.80;99.90;;;;;;5085633;28;20485;-77
2022/08/09 04:09:31;;;;;;;0.90;0.90;;;11.80;99.90;;;;;;5079330;28;20467;-78
2022/08/09 04:12:25;;;;;;;0.97;0.93;;;11.70;99.90;;;;;;5082328;28;20476;-77
2022/08/09 04:14:52;;;;;;;1.60;1.50;;;11.80;99.90;;;;;;5075782;28;20464;-77
2022/08/09 04:17:19;;;;;;;2.60;1.60;;;11.80;99.90;;;;;;5078327;28;20845;-77
2022/08/09 04:19:46;;;;;;;1.83;1.13;;;11.90;99.90;;;;;;5080489;28;20468;-78
2022/08/09 04:22:13;;;;;;;1.50;1.40;;;11.90;99.90;;;;;;5083402;28;20454;-81
2022/08/09 04:24:41;;;;;;;2.57;1.73;;;11.90;99.90;;;;;;5081696;28;20472;-79
2022/08/09 04:27:08;;;;;;;1.17;1.07;;;11.90;99.90;;;;;;5078323;28;20474;-79
2022/08/09 04:29:35;;;;;;;3.30;1.00;;;11.90;99.90;;;;;;5081625;28;20456;-77
2022/08/09 04:32:02;;;;;;;1.20;1.10;;;11.90;99.90;;;;;;5075704;28;20468;-78
2022/08/09 04:34:32;;;;;;;1.37;1.27;;;12.00;99.90;;;;;;5079389;28;20466;-81
2022/08/09 04:36:59;;;;;;;1.83;1.13;;;12.10;99.90;;;;;;5076752;28;21181;-81
2022/08/09 04:39:27;;;;;;;1.37;1.27;;;12.10;99.90;;;;;;5079581;28;20468;-79
2022/08/09 04:41:55;;;;;;;1.30;1.20;;;12.30;99.90;;;;;;5076811;28;20563;-79
2022/08/09 04:44:22;;;;;;;1.17;1.17;;;12.40;99.90;;;;;;5079797;28;20522;-81
2022/08/09 04:46:49;;;;;;;1.93;1.83;;;12.50;99.90;;;;;;5074143;28;20490;-80
2022/08/09 04:49:16;;;;;;;1.70;1.60;;;12.60;99.90;;;;;;5076213;28;20465;-82
2022/08/09 04:51:44;;;;;;;1.10;1.00;;;12.60;99.90;;;;;;5073158;28;20466;-83
2022/08/09 04:54:11;;;;;;;1.10;1.10;;;12.50;99.90;;;;;;5077120;28;20465;-81
2022/08/09 04:56:38;;;;;;;1.30;1.20;;;12.70;99.90;;;;;;5082085;28;20462;-80
2022/08/09 04:59:06;;;;;;;1.47;1.37;;;12.70;99.90;;;;;;5079869;28;20983;-77
2022/08/09 05:01:33;;;;;;;1.00;1.00;;;12.80;99.90;;;;;;5073871;28;20825;-85
2022/08/09 05:04:00;;;;;;;1.57;1.47;;;13.00;99.90;;;;;;5077092;28;20468;-81
2022/08/09 05:06:27;;;;;;;1.20;1.20;;;13.00;99.90;;;;;;5081005;28;20481;-76
2022/08/09 05:08:55;;;;;;;2.00;1.80;;;13.00;99.90;;;;;;5078639;28;20948;-76
2022/08/09 05:11:22;;;;;;;1.60;1.50;;;13.10;99.90;;;;;;5081601;28;20543;-77
2022/08/09 05:13:49;;;;;;;1.67;1.00;;;13.30;99.90;;;;;;5073721;28;20530;-78
2022/08/09 05:16:17;;;;;;;1.10;1.07;;;13.40;99.90;;;;;;5075187;28;20505;-79
2022/08/09 05:18:44;;;;;;;2.30;1.30;;;13.40;99.90;;;;;;5068197;28;20474;-77
2022/08/09 05:21:12;;;;;;;2.27;1.30;;;13.60;99.90;;;;;;5077906;28;20460;-77
2022/08/09 05:23:39;;;;;;;1.67;1.57;;;13.70;99.90;;;;;;5076570;28;20467;-78
2022/08/09 05:26:06;;;;;;;2.20;1.30;;;13.80;99.90;;;;;;5083581;28;20599;-81
2022/08/09 05:28:33;;;;;;;1.43;1.33;;;13.90;99.90;;;;;;5072101;28;20550;-77
2022/08/09 05:31:00;;;;;;;1.60;1.50;;;14.00;99.90;;;;;;5068100;28;20473;-76
2022/08/09 05:33:29;;;;;;;1.00;0.90;;;14.10;99.90;;;;;;5079855;28;20559;-76
2022/08/09 05:35:56;;;;;;;1.67;1.57;;;14.20;99.90;;;;;;5079453;28;20495;-77
2022/08/09 05:38:23;;;;;;;0.90;0.90;;;14.30;99.90;;;;;;5089249;28;20469;-76
2022/08/09 05:40:50;;;;;;;1.57;1.13;;;14.30;99.90;;;;;;5078423;28;20890;-76
2022/08/09 05:43:17;;;;;;;1.50;1.40;;;14.40;99.90;;;;;;5073082;28;20502;-77
2022/08/09 05:45:44;;;;;;;1.37;1.27;;;14.50;99.90;;;;;;5078867;28;20518;-77
2022/08/09 05:48:11;;;;;;;1.47;1.33;;;14.60;99.90;;;;;;5086681;28;20446;-76
2022/08/09 05:50:42;;;;;;;2.37;1.10;;;14.70;99.90;;;;;;5081403;28;20473;-77
2022/08/09 05:53:10;;;;;;;1.40;1.30;;;14.80;99.90;;;;;;5070095;28;20467;-76
2022/08/09 05:55:37;;;;;;;1.87;1.77;;;14.90;99.90;;;;;;5084268;28;20468;-79
2022/08/09 05:58:04;;;;;;;1.63;1.17;;;15.00;99.90;;;;;;5078757;28;20467;-75
2022/08/09 06:00:32;;;;;;;1.77;1.63;;;15.10;99.90;;;;;;5075766;28;20462;-78
2022/08/09 06:03:00;;;;;;;2.17;1.37;;;15.40;99.90;;;;;;5084169;28;20461;-75
2022/08/09 06:05:29;;;;;;;1.17;1.07;;;15.50;99.90;;;;;;5077121;28;20523;-76
2022/08/09 06:07:57;;;;;;;1.07;1.00;;;15.80;99.90;;;;;;5078247;28;20497;-76
2022/08/09 06:10:36;;;;;;;1.73;0.90;;;15.90;99.90;;;;;;5073473;28;20461;-77
2022/08/09 06:13:04;;;;;;;1.20;1.10;;;16.10;99.90;;;;;;5074121;28;20488;-78
2022/08/09 06:15:31;;;;;;;1.10;1.10;;;16.20;99.90;;;;;;5075595;28;20546;-78
2022/08/09 06:17:58;;;;;;;1.90;1.80;;;16.40;99.90;;;;;;5077474;28;21044;-79
2022/08/09 06:20:25;;;;;;;2.20;1.10;;;16.20;99.90;;;;;;5073730;28;20473;-79
2022/08/09 06:22:52;;;;;;;2.00;1.90;;;16.10;99.90;;;;;;5083732;28;20467;-82
2022/08/09 06:25:21;;;;;;;1.10;1.10;;;16.20;99.90;;;;;;5082012;28;21032;-79
2022/08/09 06:27:48;;;;;;;2.20;1.47;;;16.50;99.90;;;;;;5080059;28;20985;-80
2022/08/09 06:30:15;;;;;;;2.70;2.00;;;16.60;99.90;;;;;;5079259;28;20458;-79
2022/08/09 06:32:43;;;;;;;1.10;1.00;;;16.80;99.90;;;;;;5077983;28;20458;-78
2022/08/09 06:35:11;;;;;;;1.30;1.20;;;16.90;99.90;;;;;;5071210;28;21865;-79
2022/08/09 06:37:38;;;;;;;0.90;0.90;;;17.00;99.90;;;;;;5072048;28;20472;-80
2022/08/09 06:40:06;;;;;;;1.33;1.23;;;17.30;99.90;;;;;;5081221;28;20463;-80
2022/08/09 06:42:34;;;;;;;1.10;1.10;;;17.40;99.90;;;;;;5074485;28;20498;-80
2022/08/09 06:45:01;;;;;;;0.80;0.80;;;17.50;99.90;;;;;;5078396;28;20462;-80
2022/08/09 06:47:29;;;;;;;1.30;1.20;;;17.50;99.90;;;;;;5078186;28;20486;-79
2022/08/09 06:49:55;;;;;;;1.43;1.03;;;17.40;99.90;;;;;;5076650;28;20467;-79
2022/08/09 06:52:23;;;;;;;1.57;1.47;;;17.60;99.90;;;;;;5073831;28;20520;-82
2022/08/09 06:54:50;;;;;;;1.07;1.03;;;17.70;99.90;;;;;;5074015;28;20462;-79
2022/08/09 06:57:17;;;;;;;1.50;1.40;;;18.00;99.90;;;;;;5078170;28;20974;-79
2022/08/09 06:59:46;;;;;;;1.10;1.00;;;18.00;99.90;;;;;;5081894;28;20462;-84
2022/08/09 07:02:13;;;;;;;1.27;1.07;;;18.20;99.90;;;;;;5078564;28;20469;-80
2022/08/09 07:04:40;;;;;;;0.80;0.80;;;18.40;99.90;;;;;;5091237;28;20946;-79
2022/08/09 07:07:07;;;;;;;0.80;0.80;;;18.20;99.90;;;;;;5082826;28;20485;-80
2022/08/09 07:09:34;;;;;;;0.80;0.70;;;18.60;99.90;;;;;;5082360;28;20464;-79
2022/08/09 07:12:01;;;;;;;1.23;1.13;;;18.90;99.90;;;;;;5084716;28;20471;-80
2022/08/09 07:14:28;;;;;;;1.13;1.03;;;19.00;99.90;;;;;;5072012;28;20459;-81
2022/08/09 07:16:56;;;;;;;0.83;0.83;;;19.00;99.90;;;;;;5077506;28;20458;-79
2022/08/09 07:19:23;;;;;;;0.83;0.80;;;18.80;99.90;;;;;;5078690;28;20454;-82
2022/08/09 07:21:51;;;;;;;0.90;0.90;;;19.10;99.90;;;;;;5083336;28;20466;-80
2022/08/09 07:24:18;;;;;;;1.23;1.10;;;19.40;99.90;;;;;;5072854;28;20804;-82
2022/08/09 07:26:45;;;;;;;5.07;1.43;;;19.80;99.90;;;;;;5074239;28;20554;-80
2022/08/09 07:29:12;;;;;;;1.07;0.97;;;19.70;99.90;;;;;;5075438;28;20471;-79
2022/08/09 07:31:39;;;;;;;1.63;1.33;;;19.70;99.90;;;;;;5080342;28;20464;-81
2022/08/09 07:34:08;;;;;;;1.17;1.07;;;19.70;99.90;;;;;;5078120;28;20994;-80
2022/08/09 07:36:35;;;;;;;1.00;0.90;;;19.70;99.90;;;;;;5082578;28;20529;-80
2022/08/09 07:39:04;;;;;;;1.23;0.93;;;19.70;99.90;;;;;;5081721;28;20474;-83
2022/08/09 07:41:31;;;;;;;1.13;1.03;;;19.90;99.90;;;;;;5081898;28;20455;-80
2022/08/09 07:43:58;;;;;;;4.30;1.17;;;20.20;99.90;;;;;;5073302;28;20505;-80
2022/08/09 07:46:25;;;;;;;2.23;1.30;;;20.50;99.90;;;;;;5077012;28;20578;-87
2022/08/09 07:48:53;;;;;;;2.30;1.37;;;20.60;99.90;;;;;;5073023;28;20471;-83
2022/08/09 07:51:22;;;;;;;3.23;1.53;;;20.70;99.90;;;;;;5077537;28;20446;-81
2022/08/09 07:53:50;;;;;;;2.50;1.53;;;20.50;99.90;;;;;;5071174;28;20478;-83
2022/08/09 07:56:17;;;;;;;2.10;1.17;;;20.40;99.90;;;;;;5070939;28;20473;-82
2022/08/09 07:58:44;;;;;;;1.10;0.97;;;20.20;99.90;;;;;;5068325;28;20531;-83
2022/08/09 08:01:11;;;;;;;0.97;0.87;;;20.30;99.90;;;;;;5072688;28;20465;-81
2022/08/09 08:03:38;;;;;;;3.23;0.80;;;20.30;98.50;;;;;;5075550;28;20556;-82
2022/08/09 08:06:06;;;;;;;0.90;0.90;;;20.50;98.80;;;;;;5075069;28;20515;-81
2022/08/09 08:08:34;;;;;;;1.63;0.90;;;20.70;99.40;;;;;;5067804;28;20478;-81
2022/08/09 08:11:01;;;;;;;2.10;0.90;;;20.80;97.20;;;;;;5069780;28;20453;-81
2022/08/09 08:13:29;;;;;;;1.50;1.20;;;20.90;97.10;;;;;;5071293;28;20501;-81
2022/08/09 08:15:56;;;;;;;0.77;0.77;;;21.20;97.60;;;;;;5073845;28;20530;-82
2022/08/09 08:18:23;;;;;;;1.10;0.70;;;21.50;97.20;;;;;;5071063;28;20470;-82
2022/08/09 08:20:50;;;;;;;0.63;0.63;;;21.60;98.10;;;;;;5070257;28;20540;-82
2022/08/09 08:23:19;;;;;;;1.20;0.90;;;21.90;96.70;;;;;;5080733;28;20532;-81
2022/08/09 08:25:49;;;;;;;0.70;0.70;;;21.70;94.90;;;;;;5077402;28;20470;-82
2022/08/09 08:28:17;;;;;;;0.80;0.70;;;21.90;94.80;;;;;;5080516;28;20486;-80
2022/08/09 08:30:45;;;;;;;0.80;0.80;;;22.20;94.90;;;;;;5075530;28;20455;-81
2022/08/09 08:33:13;;;;;;;1.00;0.77;;;22.40;93.30;;;;;;5067540;28;20491;-80
2022/08/09 08:35:40;;;;;;;0.73;0.60;;;22.40;94.30;;;;;;5069908;28;20542;-80
2022/08/09 08:38:07;;;;;;;0.60;0.50;;;22.40;92.80;;;;;;5070723;28;20476;-82
2022/08/09 08:40:34;;;;;;;0.90;0.80;;;22.60;91.50;;;;;;5079074;28;20474;-82
2022/08/09 08:43:04;;;;;;;1.00;0.67;;;22.50;90.70;;;;;;5078557;28;20491;-82
2022/08/09 08:45:34;;;;;;;1.53;0.80;;;22.30;92.50;;;;;;5081220;28;20465;-80
2022/08/09 08:48:01;;;;;;;1.50;0.60;;;22.50;92.60;;;;;;5072868;28;20485;-81
2022/08/09 08:50:29;;;;;;;1.00;0.80;;;22.60;90.20;;;;;;5075412;28;20498;-82
2022/08/09 08:52:56;;;;;;;1.53;1.43;;;22.40;91.40;;;;;;5075346;28;20974;-81
2022/08/09 08:55:23;;;;;;;0.50;0.50;;;22.80;93.80;;;;;;5070251;28;20467;-81
2022/08/09 08:57:50;;;;;;;1.10;0.80;;;22.60;90.90;;;;;;5075664;28;20482;-82
2022/08/09 09:00:19;;;;;;;1.17;1.07;;;22.80;92.60;;;;;;5073249;28;20463;-82
2022/08/09 09:02:48;;;;;;;1.67;0.90;;;23.00;91.80;;;;;;5069472;28;20462;-82
2022/08/09 09:05:21;;;;;;;0.70;0.70;;;23.30;90.10;;;;;;5066807;28;20463;-83
2022/08/09 09:07:50;;;;;;;0.70;0.70;;;23.50;90.30;;;;;;5067354;28;21024;-82
2022/08/09 09:10:18;;;;;;;0.50;0.50;;;23.40;90.30;;;;;;5077261;28;20478;-81
2022/08/09 09:12:46;;;;;;;0.70;0.60;;;23.20;91.10;;;;;;5073844;28;20812;-81
2022/08/09 09:15:13;;;;;;;0.73;0.73;;;23.60;88.70;;;;;;5077352;28;20472;-81
2022/08/09 09:17:42;;;;;;;1.20;0.50;;;23.70;83.20;;;;;;5069966;28;21010;-83
2022/08/09 09:20:12;;;;;;;1.00;0.60;;;23.80;74.90;;;;;;5073097;28;20520;-83
2022/08/09 09:22:53;;;;;;;0.60;0.50;;;23.90;80.20;;;;;;5071108;28;20448;-84
2022/08/09 09:25:42;;;;;;;0.57;0.57;;;24.00;76.30;;;;;;5069961;28;20606;-83
2022/08/09 09:28:10;;;;;;;2.10;0.70;;;24.10;76.20;;;;;;5068013;28;21020;-82
2022/08/09 09:30:54;;;;;;;0.90;0.83;;;23.60;74.70;;;;;;5074215;28;20467;-78
2022/08/09 09:33:32;;;;;;;2.10;0.70;;;23.60;79.50;;;;;;5075067;28;21020;-81
2022/08/09 09:36:01;;;;;;;2.10;0.70;;;23.70;79.40;;;;;;5079873;28;20470;-90
2022/08/09 09:38:40;;;;;;;0.60;0.60;;;24.10;76.60;;;;;;5074017;28;20485;-81
2022/08/09 09:41:07;;;;;;;0.50;0.50;;;24.20;77.50;;;;;;5070413;28;20532;-81
2022/08/09 09:43:35;;;;;;;0.60;0.60;;;24.20;75.50;;;;;;5081351;28;20593;-80
2022/08/09 09:46:02;;;;;;;0.77;0.70;;;24.30;76.40;;;;;;5074689;28;20963;-80
2022/08/09 09:48:30;;;;;;;0.87;0.60;;;23.90;73.60;;;;;;5068063;28;20600;-80
2022/08/09 09:50:57;;;;;;;1.27;0.70;;;23.50;73.50;;;;;;5080203;28;20463;-82
2022/08/09 09:53:26;;;;;;;0.97;0.87;;;23.60;73.00;;;;;;5067938;28;20459;-82
2022/08/09 09:55:56;;;;;;;1.03;0.77;;;23.20;69.10;;;;;;5071786;28;20462;-83
2022/08/09 09:58:23;;;;;;;0.90;0.70;;;23.00;72.90;;;;;;5082962;28;20489;-82
2022/08/09 10:00:52;;;;;;;0.70;0.60;;;23.30;70.60;;;;;;5081314;28;21089;-81
2022/08/09 10:03:36;;;;;;;0.70;0.63;;;23.60;71.80;;;;;;5078625;28;20470;-80
2022/08/09 10:06:05;;;;;;;2.33;0.63;;;23.90;71.60;;;;;;5090548;28;20454;-81
2022/08/09 10:08:32;;;;;;;0.80;0.80;;;24.20;68.60;;;;;;5085491;28;20482;-81
2022/08/09 10:10:59;;;;;;;0.60;0.60;;;24.20;71.40;;;;;;5079107;28;20851;-80
2022/08/09 10:13:38;;;;;;;1.27;0.60;;;24.20;69.40;;;;;;5076822;28;20788;-80
2022/08/09 10:16:05;;;;;;;4.20;0.70;;;24.80;74.40;;;;;;5072970;28;20455;-79
2022/08/09 10:18:33;;;;;;;1.03;0.60;;;24.90;71.10;;;;;;5076175;28;20448;-80
2022/08/09 10:21:08;;;;;;;1.90;0.70;;;24.80;70.40;;;;;;5068146;28;20462;-81
2022/08/09 10:23:36;;;;;;;1.37;0.67;;;25.00;67.60;;;;;;5078772;28;20545;-80
2022/08/09 10:26:03;;;;;;;0.90;0.60;;;24.50;65.20;;;;;;5077128;28;20460;-81
2022/08/09 10:28:32;;;;;;;1.10;1.00;;;24.50;69.70;;;;;;5073397;28;20540;-82
2022/08/09 10:31:00;;;;;;;0.70;0.60;;;25.00;71.20;;;;;;5070654;28;20463;-81
2022/08/09 10:33:27;;;;;;;0.70;0.60;;;25.40;72.00;;;;;;5070859;28;20460;-80
2022/08/09 10:35:56;;;;;;;0.60;0.60;;;25.40;70.30;;;;;;5077934;28;20816;-80
2022/08/09 10:38:24;;;;;;;0.60;0.60;;;25.60;70.10;;;;;;5088434;28;20865;-82
2022/08/09 10:40:51;;;;;;;1.37;0.60;;;25.40;62.90;;;;;;5070965;28;20586;-81
2022/08/09 10:43:22;;;;;;;0.50;0.50;;;25.40;66.20;;;;;;5070721;28;20954;-81
2022/08/09 10:45:49;;;;;;;1.27;1.03;;;25.40;65.30;;;;;;5070579;28;20474;-82
2022/08/09 10:48:21;;;;;;;1.40;0.80;;;25.80;67.50;;;;;;5071807;28;21188;-81
2022/08/09 10:51:13;;;;;;;1.50;0.60;;;25.70;60.20;;;;;;5068602;28;20869;-80
2022/08/09 10:54:01;;;;;;;1.00;0.70;;;25.60;62.40;;;;;;5089093;28;20451;-84
2022/08/09 10:56:34;;;;;;;0.70;0.70;;;25.40;68.20;;;;;;5082144;28;20482;-82
2022/08/09 10:59:22;;;;;;;2.03;0.57;;;25.40;66.40;;;;;;5068012;28;20478;-80
2022/08/09 11:01:52;;;;;;;0.67;0.67;;;25.70;64.50;;;;;;5069619;28;20467;-82
2022/08/09 11:04:21;;;;;;;0.60;0.60;;;25.60;64.10;;;;;;5066258;28;20487;-81
2022/08/09 11:06:50;;;;;;;0.90;0.73;;;25.60;62.90;;;;;;5070897;28;20520;-82
2022/08/09 11:09:19;;;;;;;0.60;0.60;;;25.40;60.30;;;;;;5069819;28;20493;-82
2022/08/09 11:12:12;;;;;;;1.43;1.00;;;25.00;61.80;;;;;;5068416;28;20470;-81
2022/08/09 11:14:43;;;;;;;0.70;0.70;;;24.80;62.10;;;;;;5070490;28;20470;-81
2022/08/09 11:17:49;;;;;;;0.80;0.80;;;24.70;59.00;;;;;;5067435;28;20571;-80
2022/08/09 11:20:19;;;;;;;0.60;0.60;;;25.10;68.90;;;;;;5070976;28;20532;-81
2022/08/09 11:23:02;;;;;;;0.90;0.60;;;25.60;66.30;;;;;;5073710;28;20980;-83
2022/08/09 11:25:46;;;;;;;0.80;0.80;;;25.80;65.20;;;;;;5075612;28;21050;-83
2022/08/09 11:28:36;;;;;;;0.60;0.50;;;25.20;60.20;;;;;;5074476;28;21122;-80
2022/08/09 11:31:40;;;;;;;7.47;0.77;;;25.30;63.00;;;;;;5063246;28;20827;-82
2022/08/09 11:34:16;;;;;;;1.07;0.90;;;25.50;65.60;;;;;;5079709;28;20466;-80
2022/08/09 11:36:46;;;;;;;2.50;0.93;;;25.60;63.80;;;;;;5075390;28;20477;-81
2022/08/09 11:39:13;;;;;;;1.33;0.60;;;25.70;66.50;;;;;;5077836;28;20546;-84
2022/08/09 11:41:41;;;;;;;0.77;0.60;;;26.00;66.30;;;;;;5079163;28;20516;-80
2022/08/09 11:44:08;;;;;;;0.97;0.50;;;25.90;59.80;;;;;;5068695;28;20476;-80
2022/08/09 11:46:53;;;;;;;1.00;0.60;;;25.90;63.90;;;;;;5079362;28;20454;-80
2022/08/09 11:49:41;;;;;;;0.93;0.60;;;25.90;57.70;;;;;;5076129;28;20491;-80
2022/08/09 11:52:09;;;;;;;2.00;0.70;;;25.90;59.40;;;;;;5072094;28;20459;-80
2022/08/09 11:54:36;;;;;;;2.80;0.60;;;26.30;63.70;;;;;;5073864;28;20464;-83
2022/08/09 11:57:37;;;;;;;1.33;0.63;;;26.30;61.80;;;;;;5068388;28;20977;-83
2022/08/09 12:00:08;;;;;;;1.07;0.60;;;26.50;58.00;;;;;;5072650;28;20547;-80
2022/08/09 12:02:38;;;;;;;1.00;0.70;;;26.50;60.20;;;;;;5070481;28;20655;-82
2022/08/09 12:05:06;;;;;;;0.50;0.50;;;26.70;59.90;;;;;;5074527;28;20472;-81
2022/08/09 12:07:35;;;;;;;0.50;0.50;;;26.50;58.00;;;;;;5070676;28;20467;-81
2022/08/09 12:10:02;;;;;;;0.60;0.60;;;26.60;59.90;;;;;;5071478;28;20480;-80
2022/08/09 12:12:29;;;;;;;0.80;0.80;;;26.50;60.20;;;;;;5071613;28;21191;-81
2022/08/09 12:14:57;;;;;;;0.90;0.60;;;26.80;60.20;;;;;;5072354;28;20899;-81
2022/08/09 12:17:24;;;;;;;1.23;0.60;;;27.00;60.80;;;;;;5081542;28;20459;-83
2022/08/09 12:19:51;;;;;;;0.83;0.70;;;26.60;59.20;;;;;;5072277;28;20981;-83
2022/08/09 12:22:19;;;;;;;1.00;0.83;;;26.20;58.80;;;;;;5073498;28;20490;-82
2022/08/09 12:24:48;;;;;;;0.60;0.50;;;26.20;61.10;;;;;;5071432;28;20464;-81
2022/08/09 12:27:19;;;;;;;0.60;0.60;;;26.50;61.90;;;;;;5080334;28;20458;-82
2022/08/09 12:29:55;;;;;;;0.63;0.60;;;26.90;62.40;;;;;;5077997;28;20498;-89
2022/08/09 12:32:26;;;;;;;0.60;0.60;;;26.90;60.90;;;;;;5066760;28;20618;-80
2022/08/09 12:34:59;;;;;;;0.97;0.60;;;27.10;59.50;;;;;;5072588;28;20467;-83
2022/08/09 12:37:31;;;;;;;0.60;0.60;;;26.50;58.20;;;;;;5074628;28;20463;-81
2022/08/09 12:40:05;;;;;;;0.60;0.60;;;25.90;60.00;;;;;;5070568;28;20552;-80
2022/08/09 12:42:33;;;;;;;0.50;0.40;;;26.10;61.60;;;;;;5071338;28;20573;-83
2022/08/09 12:45:02;;;;;;;0.70;0.60;;;26.70;63.00;;;;;;5079288;28;20466;-82
2022/08/09 12:47:29;;;;;;;2.60;0.60;;;26.40;55.90;;;;;;5073539;28;20545;-80
2022/08/09 12:52:43;;;;;;;0.80;0.70;;;25.20;57.00;;;;;;5070145;28;20467;-80
2022/08/09 12:55:11;;;;;;;0.60;0.60;;;24.70;59.80;;;;;;5071476;28;21314;-91
2022/08/09 12:57:40;;;;;;;0.80;0.60;;;24.50;63.70;;;;;;5072175;28;20468;-82
2022/08/09 13:00:19;;;;;;;0.70;0.70;;;24.90;67.10;;;;;;5082713;28;20539;-85
2022/08/09 13:02:52;;;;;;;1.37;0.60;;;24.90;61.00;;;;;;5088622;28;20447;-84
2022/08/09 13:05:20;;;;;;;1.37;0.50;;;24.70;59.90;;;;;;5082036;28;20516;-82